Time;durP1;ratioP1;P1;durP2;ratioP2;P2;SDS_P1;SDS_P2;PMS_P1;PMS_P2;Temp;Humidity;BMP_temperature;BMP_pressure;BME280_temperature;BME280_humidity;BME280_pressure;Samples;Min_cycle;Max_cycle;Signal;HPM_P1;HPM_P2
2023/12/03 00:00:25;;;;;;;13.15;12.45;;;;;;;;;;5076863;28;20047;-68
2023/12/03 00:02:51;;;;;;;12.65;12.05;;;;;;;;;;5076193;28;20013;-67
2023/12/03 00:05:16;;;;;;;12.45;11.85;;;;;;;;;;5078786;28;20487;-68
2023/12/03 00:07:42;;;;;;;12.35;11.75;;;;;;;;;;5082103;28;20031;-68
2023/12/03 00:10:08;;;;;;;12.63;12.02;;;;;;;;;;5082655;28;20423;-67
2023/12/03 00:12:33;;;;;;;12.55;11.95;;;;;;;;;;5083564;28;20016;-68
2023/12/03 00:14:58;;;;;;;12.15;11.55;;;;;;;;;;5083316;28;20028;-66
2023/12/03 00:17:24;;;;;;;12.50;11.90;;;;;;;;;;5062794;28;20134;-67
2023/12/03 00:19:49;;;;;;;12.50;11.90;;;;;;;;;;5080051;28;20023;-68
2023/12/03 00:22:14;;;;;;;12.57;11.98;;;;;;;;;;5074722;28;20072;-68
2023/12/03 00:24:40;;;;;;;13.13;12.43;;;;;;;;;;5079821;28;20047;-67
2023/12/03 00:27:06;;;;;;;12.65;12.05;;;;;;;;;;5072540;28;20090;-68
2023/12/03 00:29:31;;;;;;;13.25;12.55;;;;;;;;;;5076680;28;20016;-67
2023/12/03 00:31:57;;;;;;;13.32;12.63;;;;;;;;;;5073709;28;20024;-68
2023/12/03 00:34:22;;;;;;;12.55;11.95;;;;;;;;;;5083932;28;20020;-69
2023/12/03 00:36:47;;;;;;;12.15;11.57;;;;;;;;;;5074464;28;20020;-66
2023/12/03 00:39:13;;;;;;;12.38;11.77;;;;;;;;;;5070890;28;20494;-68
2023/12/03 00:41:38;;;;;;;13.07;12.38;;;;;;;;;;5077183;28;20025;-66
2023/12/03 00:44:04;;;;;;;12.35;11.75;;;;;;;;;;5075321;28;20032;-68
2023/12/03 00:46:29;;;;;;;12.85;12.23;;;;;;;;;;5072037;28;20025;-67
2023/12/03 00:48:55;;;;;;;12.63;12.02;;;;;;;;;;5067640;28;20111;-67
2023/12/03 00:51:20;;;;;;;12.73;12.13;;;;;;;;;;5071041;28;20063;-66
2023/12/03 00:53:45;;;;;;;12.75;12.15;;;;;;;;;;5081667;28;20544;-69
2023/12/03 00:56:11;;;;;;;12.75;12.15;;;;;;;;;;5078522;28;20033;-67
2023/12/03 00:58:36;;;;;;;12.68;12.07;;;;;;;;;;5069670;28;20753;-67
2023/12/03 01:01:02;;;;;;;12.50;11.90;;;;;;;;;;5071188;28;20028;-67
2023/12/03 01:03:28;;;;;;;12.60;12.00;;;;;;;;;;5072568;28;20097;-68
2023/12/03 01:05:53;;;;;;;13.02;12.35;;;;;;;;;;5068287;28;20977;-66
2023/12/03 01:08:18;;;;;;;12.07;11.48;;;;;;;;;;5064549;28;20025;-67
2023/12/03 01:10:44;;;;;;;12.73;12.13;;;;;;;;;;5072816;28;20082;-68
2023/12/03 01:13:09;;;;;;;12.25;11.65;;;;;;;;;;5072496;28;20063;-69
2023/12/03 01:15:34;;;;;;;12.57;11.98;;;;;;;;;;5063979;28;20025;-68
2023/12/03 01:18:00;;;;;;;13.05;12.35;;;;;;;;;;5076685;28;20062;-67
2023/12/03 01:20:25;;;;;;;12.80;12.20;;;;;;;;;;5070456;28;20059;-69
2023/12/03 01:22:51;;;;;;;13.00;12.40;;;;;;;;;;5072839;28;20025;-67
2023/12/03 01:25:16;;;;;;;12.48;11.88;;;;;;;;;;5074697;28;20012;-68
2023/12/03 01:27:41;;;;;;;12.68;12.07;;;;;;;;;;5075584;28;20028;-68
2023/12/03 01:30:07;;;;;;;12.18;11.57;;;;;;;;;;5072239;28;20602;-67
2023/12/03 01:32:32;;;;;;;11.90;11.40;;;;;;;;;;5072736;28;20039;-68
2023/12/03 01:34:57;;;;;;;12.68;12.07;;;;;;;;;;5064826;28;20025;-68
2023/12/03 01:37:23;;;;;;;12.88;12.27;;;;;;;;;;5075062;28;20450;-67
2023/12/03 01:39:48;;;;;;;12.38;11.77;;;;;;;;;;5073894;28;20551;-67
2023/12/03 01:42:13;;;;;;;12.70;12.10;;;;;;;;;;5073153;28;20009;-66
2023/12/03 01:44:39;;;;;;;13.45;12.75;;;;;;;;;;5071299;28;20525;-67
2023/12/03 01:47:04;;;;;;;12.43;11.82;;;;;;;;;;5069799;28;20626;-67
2023/12/03 01:49:30;;;;;;;12.40;11.80;;;;;;;;;;5075340;28;20025;-67
2023/12/03 01:51:56;;;;;;;12.63;12.02;;;;;;;;;;5071983;28;20390;-67
2023/12/03 01:54:22;;;;;;;12.48;11.88;;;;;;;;;;5074992;28;20104;-67
2023/12/03 01:56:47;;;;;;;12.65;12.05;;;;;;;;;;5068013;28;20414;-66
2023/12/03 01:59:13;;;;;;;12.30;11.70;;;;;;;;;;5078263;28;20024;-66
2023/12/03 02:01:38;;;;;;;12.10;11.50;;;;;;;;;;5066331;28;20100;-66
2023/12/03 02:04:04;;;;;;;12.43;11.82;;;;;;;;;;5083126;28;20020;-66
2023/12/03 02:06:29;;;;;;;12.38;11.77;;;;;;;;;;5073003;28;20496;-68
2023/12/03 02:08:54;;;;;;;12.45;11.85;;;;;;;;;;5067422;28;20476;-66
2023/12/03 02:11:20;;;;;;;12.75;12.15;;;;;;;;;;5069137;28;20086;-67
2023/12/03 02:13:47;;;;;;;12.68;12.07;;;;;;;;;;5074279;28;20077;-67
2023/12/03 02:16:12;;;;;;;12.45;11.85;;;;;;;;;;5067212;28;20021;-68
2023/12/03 02:18:37;;;;;;;12.30;11.70;;;;;;;;;;5074280;28;20040;-68
2023/12/03 02:21:03;;;;;;;12.52;11.93;;;;;;;;;;5075777;28;20052;-67
2023/12/03 02:23:29;;;;;;;12.65;12.05;;;;;;;;;;5076687;28;20025;-66
2023/12/03 02:25:54;;;;;;;12.82;12.23;;;;;;;;;;5070886;28;20391;-67
2023/12/03 02:28:19;;;;;;;12.60;12.00;;;;;;;;;;5074898;28;20016;-67
2023/12/03 02:30:45;;;;;;;12.90;12.27;;;;;;;;;;5074097;28;20020;-67
2023/12/03 02:33:10;;;;;;;13.77;13.05;;;;;;;;;;5068002;28;20040;-67
2023/12/03 02:35:35;;;;;;;12.73;12.13;;;;;;;;;;5073750;28;20050;-68
2023/12/03 02:38:01;;;;;;;12.27;11.68;;;;;;;;;;5074156;28;20062;-69
2023/12/03 02:40:26;;;;;;;12.77;12.18;;;;;;;;;;5078267;28;20071;-67
2023/12/03 02:42:51;;;;;;;12.65;12.05;;;;;;;;;;5071429;28;20020;-68
2023/12/03 02:45:17;;;;;;;12.63;12.02;;;;;;;;;;5074178;28;20499;-68
2023/12/03 02:47:42;;;;;;;12.50;11.90;;;;;;;;;;5074282;28;20035;-68
2023/12/03 02:50:08;;;;;;;12.52;11.93;;;;;;;;;;5080380;28;20036;-67
2023/12/03 02:52:33;;;;;;;12.38;11.77;;;;;;;;;;5079148;28;20023;-68
2023/12/03 02:54:59;;;;;;;12.32;11.73;;;;;;;;;;5080808;28;20065;-67
2023/12/03 02:57:24;;;;;;;12.52;11.93;;;;;;;;;;5074120;28;20065;-68
2023/12/03 02:59:49;;;;;;;12.48;11.88;;;;;;;;;;5071797;28;20028;-68
2023/12/03 03:02:15;;;;;;;12.30;11.70;;;;;;;;;;5086667;28;20028;-68
2023/12/03 03:04:40;;;;;;;12.55;11.95;;;;;;;;;;5077629;28;20021;-67
2023/12/03 03:07:06;;;;;;;12.73;12.13;;;;;;;;;;5070330;28;20067;-67
2023/12/03 03:09:31;;;;;;;13.25;12.55;;;;;;;;;;5079832;28;20016;-65
2023/12/03 03:11:57;;;;;;;12.38;11.77;;;;;;;;;;5083593;28;20020;-66
2023/12/03 03:14:23;;;;;;;11.90;11.40;;;;;;;;;;5081621;28;20052;-67
2023/12/03 03:16:49;;;;;;;12.20;11.60;;;;;;;;;;5070610;28;20055;-66
2023/12/03 03:19:15;;;;;;;12.93;12.27;;;;;;;;;;5080802;28;20032;-66
2023/12/03 03:21:41;;;;;;;12.38;11.77;;;;;;;;;;5089144;28;20027;-68
2023/12/03 03:24:06;;;;;;;12.32;11.73;;;;;;;;;;5086429;28;20135;-66
2023/12/03 03:26:32;;;;;;;12.40;11.80;;;;;;;;;;5082515;28;20055;-68
2023/12/03 03:28:57;;;;;;;13.40;12.70;;;;;;;;;;5082739;28;20086;-68
2023/12/03 03:31:22;;;;;;;12.95;12.27;;;;;;;;;;5078759;28;20021;-67
2023/12/03 03:33:49;;;;;;;12.68;12.07;;;;;;;;;;5083933;28;20104;-67
2023/12/03 03:36:14;;;;;;;12.73;12.13;;;;;;;;;;5079955;28;20024;-65
2023/12/03 03:38:40;;;;;;;12.50;11.90;;;;;;;;;;5089128;28;20379;-66
2023/12/03 03:41:05;;;;;;;12.40;11.80;;;;;;;;;;5077503;28;20051;-68
2023/12/03 03:43:30;;;;;;;12.35;11.77;;;;;;;;;;5072848;28;20013;-67
2023/12/03 03:45:57;;;;;;;12.60;12.00;;;;;;;;;;5087313;28;20020;-67
2023/12/03 03:48:22;;;;;;;12.05;11.50;;;;;;;;;;5085885;28;20096;-67
2023/12/03 03:50:47;;;;;;;12.13;11.52;;;;;;;;;;5077407;28;20020;-66
2023/12/03 03:53:13;;;;;;;12.13;11.57;;;;;;;;;;5089531;28;20095;-67
2023/12/03 03:55:38;;;;;;;13.00;12.30;;;;;;;;;;5084517;28;20044;-67
2023/12/03 03:58:03;;;;;;;12.50;11.90;;;;;;;;;;5074920;28;20029;-67
2023/12/03 04:00:29;;;;;;;12.55;11.95;;;;;;;;;;5081163;28;20077;-68
2023/12/03 04:02:54;;;;;;;12.98;12.27;;;;;;;;;;5076137;28;20104;-66
2023/12/03 04:05:19;;;;;;;13.27;12.57;;;;;;;;;;5075939;28;20016;-67
2023/12/03 04:07:45;;;;;;;12.35;11.75;;;;;;;;;;5070914;28;20024;-67
2023/12/03 04:10:10;;;;;;;13.10;12.40;;;;;;;;;;5076020;28;20023;-67
2023/12/03 04:12:36;;;;;;;12.25;11.65;;;;;;;;;;5074490;28;20477;-69
2023/12/03 04:15:01;;;;;;;12.02;11.43;;;;;;;;;;5079181;28;20025;-67
2023/12/03 04:17:27;;;;;;;12.23;11.63;;;;;;;;;;5073071;28;20451;-68
2023/12/03 04:19:52;;;;;;;13.15;12.45;;;;;;;;;;5077935;28;20017;-67
2023/12/03 04:22:17;;;;;;;12.20;11.60;;;;;;;;;;5078178;28;20024;-68
2023/12/03 04:24:45;;;;;;;12.30;11.70;;;;;;;;;;5077401;28;20486;-68
2023/12/03 04:27:10;;;;;;;12.60;12.00;;;;;;;;;;5079537;28;20044;-68
2023/12/03 04:29:36;;;;;;;12.20;11.60;;;;;;;;;;5073543;28;20040;-68
2023/12/03 04:32:02;;;;;;;12.50;11.90;;;;;;;;;;5074585;28;20173;-69
2023/12/03 04:34:27;;;;;;;12.70;12.10;;;;;;;;;;5078725;28;20498;-67
2023/12/03 04:36:52;;;;;;;12.40;11.80;;;;;;;;;;5075264;28;20027;-66
2023/12/03 04:39:18;;;;;;;12.20;11.60;;;;;;;;;;5073284;28;20107;-67
2023/12/03 04:41:43;;;;;;;12.18;11.57;;;;;;;;;;5074087;28;20028;-67
2023/12/03 04:44:08;;;;;;;11.80;11.30;;;;;;;;;;5078597;28;20487;-68
2023/12/03 04:46:34;;;;;;;11.90;11.30;;;;;;;;;;5072106;28;20093;-67
2023/12/03 04:48:59;;;;;;;12.20;11.60;;;;;;;;;;5070653;28;20043;-67
2023/12/03 04:51:25;;;;;;;11.80;11.30;;;;;;;;;;5071732;28;20043;-68
2023/12/03 04:53:50;;;;;;;12.32;11.73;;;;;;;;;;5067958;28;20024;-66
2023/12/03 04:56:16;;;;;;;12.20;11.60;;;;;;;;;;5071232;28;20012;-67
2023/12/03 04:58:41;;;;;;;12.52;11.93;;;;;;;;;;5065770;28;20106;-66
2023/12/03 05:01:07;;;;;;;12.43;11.82;;;;;;;;;;5071157;28;20020;-66
2023/12/03 05:03:33;;;;;;;12.27;11.68;;;;;;;;;;5072464;28;20471;-67
2023/12/03 05:05:58;;;;;;;12.15;11.55;;;;;;;;;;5070696;28;20083;-68
2023/12/03 05:08:24;;;;;;;12.05;11.45;;;;;;;;;;5070967;28;20463;-68
2023/12/03 05:10:49;;;;;;;11.80;11.30;;;;;;;;;;5072881;28;20468;-68
2023/12/03 05:13:15;;;;;;;12.18;11.57;;;;;;;;;;5066287;28;20032;-67
2023/12/03 05:15:40;;;;;;;13.50;12.80;;;;;;;;;;5073530;28;20020;-67
2023/12/03 05:18:05;;;;;;;12.18;11.57;;;;;;;;;;5076647;28;20659;-67
2023/12/03 05:20:32;;;;;;;12.27;11.68;;;;;;;;;;5082377;28;20411;-67
2023/12/03 05:22:57;;;;;;;12.57;11.98;;;;;;;;;;5067694;28;20019;-66
2023/12/03 05:25:22;;;;;;;12.48;11.88;;;;;;;;;;5069360;28;20017;-66
2023/12/03 05:27:48;;;;;;;12.60;12.00;;;;;;;;;;5069094;28;20463;-68
2023/12/03 05:30:14;;;;;;;12.85;12.25;;;;;;;;;;5073187;28;20031;-67
2023/12/03 05:32:40;;;;;;;13.18;12.55;;;;;;;;;;5069723;28;20066;-67
2023/12/03 05:35:05;;;;;;;12.75;12.15;;;;;;;;;;5068893;28;20100;-68
2023/12/03 05:37:31;;;;;;;13.55;12.85;;;;;;;;;;5070214;28;20020;-68
2023/12/03 05:39:56;;;;;;;12.45;11.85;;;;;;;;;;5071489;28;20024;-70
2023/12/03 05:42:22;;;;;;;12.70;12.10;;;;;;;;;;5063744;28;20016;-68
2023/12/03 05:44:47;;;;;;;13.60;12.90;;;;;;;;;;5070818;28;20103;-68
2023/12/03 05:47:12;;;;;;;12.60;12.00;;;;;;;;;;5070896;28;20044;-69
2023/12/03 05:49:39;;;;;;;12.75;12.15;;;;;;;;;;5068760;28;20158;-68
2023/12/03 05:52:05;;;;;;;12.95;12.35;;;;;;;;;;5070951;28;20035;-67
2023/12/03 05:54:30;;;;;;;12.60;12.00;;;;;;;;;;5071043;28;20017;-71
2023/12/03 05:56:55;;;;;;;12.90;12.30;;;;;;;;;;5069975;28;20032;-70
2023/12/03 05:59:22;;;;;;;12.80;12.20;;;;;;;;;;5073206;28;20039;-69
2023/12/03 06:01:48;;;;;;;12.48;11.88;;;;;;;;;;5071239;28;20025;-67
2023/12/03 06:04:13;;;;;;;13.45;12.75;;;;;;;;;;5069896;28;20433;-69
2023/12/03 06:06:38;;;;;;;13.02;12.35;;;;;;;;;;5070197;28;20024;-66
2023/12/03 06:09:04;;;;;;;11.93;11.43;;;;;;;;;;5074433;28;20024;-67
2023/12/03 06:11:32;;;;;;;12.13;11.52;;;;;;;;;;5068298;28;20032;-64
2023/12/03 06:13:57;;;;;;;12.40;11.80;;;;;;;;;;5065562;28;20033;-67
2023/12/03 06:16:23;;;;;;;12.73;12.13;;;;;;;;;;5070181;28;20024;-67
2023/12/03 06:18:48;;;;;;;12.27;11.68;;;;;;;;;;5074268;28;20034;-67
2023/12/03 06:21:14;;;;;;;12.55;11.95;;;;;;;;;;5076226;28;20525;-68
2023/12/03 06:23:39;;;;;;;13.15;12.45;;;;;;;;;;5077076;28;20030;-68
2023/12/03 06:26:05;;;;;;;12.75;12.15;;;;;;;;;;5074200;28;20643;-69
2023/12/03 06:28:30;;;;;;;12.48;11.88;;;;;;;;;;5070911;28;20070;-68
2023/12/03 06:30:57;;;;;;;12.70;12.10;;;;;;;;;;5069322;28;20032;-67
2023/12/03 06:33:22;;;;;;;12.65;12.05;;;;;;;;;;5066805;28;20027;-71
2023/12/03 06:35:48;;;;;;;12.30;11.70;;;;;;;;;;5068428;28;20095;-63
2023/12/03 06:38:13;;;;;;;12.88;12.27;;;;;;;;;;5073826;28;20078;-69
2023/12/03 06:40:39;;;;;;;12.70;12.10;;;;;;;;;;5066493;28;20649;-70
2023/12/03 06:43:04;;;;;;;13.50;12.80;;;;;;;;;;5077091;28;20073;-69
2023/12/03 06:45:30;;;;;;;12.85;12.25;;;;;;;;;;5071766;28;20028;-71
2023/12/03 06:47:55;;;;;;;13.23;12.52;;;;;;;;;;5068335;28;20476;-70
2023/12/03 06:50:20;;;;;;;13.55;12.85;;;;;;;;;;5078106;28;20025;-71
2023/12/03 06:52:46;;;;;;;12.38;11.77;;;;;;;;;;5077691;28;20017;-70
2023/12/03 06:55:11;;;;;;;12.60;12.00;;;;;;;;;;5078274;28;20021;-71
2023/12/03 06:57:37;;;;;;;12.60;12.00;;;;;;;;;;5076884;28;20024;-70
2023/12/03 07:00:03;;;;;;;12.65;12.05;;;;;;;;;;5076354;28;20039;-67
2023/12/03 07:02:29;;;;;;;12.15;11.55;;;;;;;;;;5074515;28;21846;-71
2023/12/03 07:04:54;;;;;;;12.52;11.93;;;;;;;;;;5063044;28;20028;-72
2023/12/03 07:07:20;;;;;;;13.30;12.60;;;;;;;;;;5071089;28;20077;-66
2023/12/03 07:09:46;;;;;;;12.77;12.18;;;;;;;;;;5080041;28;20032;-70
2023/12/03 07:12:11;;;;;;;12.75;12.15;;;;;;;;;;5079613;28;20500;-70
2023/12/03 07:14:36;;;;;;;12.98;12.32;;;;;;;;;;5079448;28;20036;-71
2023/12/03 07:17:02;;;;;;;12.90;12.25;;;;;;;;;;5074621;28;20488;-72
2023/12/03 07:19:28;;;;;;;12.93;12.32;;;;;;;;;;5082096;28;20029;-72
2023/12/03 07:21:54;;;;;;;13.18;12.48;;;;;;;;;;5084789;28;20077;-71
2023/12/03 07:24:21;;;;;;;12.70;12.10;;;;;;;;;;5069922;28;20012;-71
2023/12/03 07:26:46;;;;;;;12.23;11.63;;;;;;;;;;5080557;28;20052;-71
2023/12/03 07:29:12;;;;;;;12.50;11.90;;;;;;;;;;5083379;28;20509;-71
2023/12/03 07:31:37;;;;;;;12.32;11.73;;;;;;;;;;5082753;28;20028;-72
2023/12/03 07:34:03;;;;;;;12.52;11.93;;;;;;;;;;5074813;28;20041;-72
2023/12/03 07:36:28;;;;;;;12.43;11.82;;;;;;;;;;5073070;28;20028;-72
2023/12/03 07:38:53;;;;;;;13.02;12.32;;;;;;;;;;5070615;28;20040;-71
2023/12/03 07:41:19;;;;;;;12.13;11.52;;;;;;;;;;5072391;28;20038;-72
2023/12/03 07:43:44;;;;;;;12.80;12.20;;;;;;;;;;5080287;28;20020;-71
2023/12/03 07:46:15;;;;;;;12.18;11.57;;;;;;;;;;5076691;28;20021;-70
2023/12/03 07:48:41;;;;;;;12.98;12.38;;;;;;;;;;5085558;28;20368;-72
2023/12/03 07:51:10;;;;;;;12.52;11.93;;;;;;;;;;5078768;28;20032;-70
2023/12/03 07:53:35;;;;;;;12.70;12.10;;;;;;;;;;5081099;28;20047;-73
2023/12/03 07:56:00;;;;;;;13.90;13.20;;;;;;;;;;5073783;28;20539;-72
2023/12/03 07:58:26;;;;;;;12.50;11.90;;;;;;;;;;5077613;28;20093;-72
2023/12/03 08:00:52;;;;;;;13.55;12.85;;;;;;;;;;5065787;28;20038;-72
2023/12/03 08:03:17;;;;;;;12.82;12.23;;;;;;;;;;5084268;28;20055;-72
2023/12/03 08:05:42;;;;;;;12.80;12.20;;;;;;;;;;5080186;28;20024;-71
2023/12/03 08:08:08;;;;;;;13.63;12.95;;;;;;;;;;5077849;28;20036;-68
2023/12/03 08:10:33;;;;;;;13.93;13.23;;;;;;;;;;5077101;28;20024;-72
2023/12/03 08:12:58;;;;;;;13.63;12.93;;;;;;;;;;5080522;28;20028;-73
2023/12/03 08:15:24;;;;;;;13.02;12.43;;;;;;;;;;5074044;28;20399;-72
2023/12/03 08:17:49;;;;;;;14.05;13.35;;;;;;;;;;5060986;28;20056;-68
2023/12/03 08:20:14;;;;;;;13.07;12.48;;;;;;;;;;5069537;28;20052;-68
2023/12/03 08:22:40;;;;;;;13.23;12.63;;;;;;;;;;5074536;28;20016;-68
2023/12/03 08:25:07;;;;;;;13.00;12.40;;;;;;;;;;5075086;28;20102;-69
2023/12/03 08:27:33;;;;;;;13.30;12.70;;;;;;;;;;5070864;28;20033;-68
2023/12/03 08:29:58;;;;;;;13.35;12.75;;;;;;;;;;5077981;28;20021;-66
2023/12/03 08:32:24;;;;;;;13.80;13.20;;;;;;;;;;5069612;28;20396;-68
2023/12/03 08:34:50;;;;;;;13.38;12.77;;;;;;;;;;5066721;28;20028;-67
2023/12/03 08:37:15;;;;;;;14.43;13.73;;;;;;;;;;5072435;28;20031;-69
2023/12/03 08:39:41;;;;;;;13.93;13.32;;;;;;;;;;5065342;28;20025;-68
2023/12/03 08:42:07;;;;;;;13.80;13.20;;;;;;;;;;5065162;28;20078;-69
2023/12/03 08:44:32;;;;;;;14.20;13.50;;;;;;;;;;5071449;28;20107;-70
2023/12/03 08:46:58;;;;;;;14.45;13.75;;;;;;;;;;5075527;28;20460;-69
2023/12/03 08:49:24;;;;;;;13.90;13.30;;;;;;;;;;5072742;28;20027;-69
2023/12/03 08:51:50;;;;;;;13.75;13.15;;;;;;;;;;5071707;28;20481;-69
2023/12/03 08:54:15;;;;;;;13.50;12.90;;;;;;;;;;5075783;28;20167;-69
2023/12/03 08:56:41;;;;;;;13.90;13.30;;;;;;;;;;5070335;28;20055;-71
2023/12/03 08:59:08;;;;;;;13.90;13.30;;;;;;;;;;5071307;28;20103;-69
2023/12/03 09:01:33;;;;;;;13.30;12.70;;;;;;;;;;5067578;28;20115;-69
2023/12/03 09:03:58;;;;;;;14.27;13.57;;;;;;;;;;5064322;28;20509;-69
2023/12/03 09:06:24;;;;;;;14.27;13.57;;;;;;;;;;5070933;28;20031;-68
2023/12/03 09:08:50;;;;;;;14.15;13.45;;;;;;;;;;5079330;28;20027;-71
2023/12/03 09:11:15;;;;;;;14.40;13.70;;;;;;;;;;5073992;28;20028;-70
2023/12/03 09:13:40;;;;;;;14.77;14.07;;;;;;;;;;5071538;28;20020;-70
2023/12/03 09:16:06;;;;;;;13.57;12.98;;;;;;;;;;5071828;28;20036;-69
2023/12/03 09:18:38;;;;;;;13.43;12.82;;;;;;;;;;5071318;28;20048;-69
2023/12/03 09:21:04;;;;;;;14.82;14.13;;;;;;;;;;5065762;28;20028;-69
2023/12/03 09:23:29;;;;;;;13.45;12.85;;;;;;;;;;5071371;28;20032;-69
2023/12/03 09:25:54;;;;;;;14.10;13.40;;;;;;;;;;5070866;28;20008;-69
2023/12/03 09:28:20;;;;;;;14.23;13.52;;;;;;;;;;5071090;28;20021;-70
2023/12/03 09:30:45;;;;;;;14.43;13.73;;;;;;;;;;5071414;28;20059;-69
2023/12/03 09:33:10;;;;;;;14.57;13.88;;;;;;;;;;5071705;28;20021;-70
2023/12/03 09:35:36;;;;;;;14.40;13.70;;;;;;;;;;5071088;28;20025;-69
2023/12/03 09:38:01;;;;;;;14.40;13.70;;;;;;;;;;5069644;28;20492;-69
2023/12/03 09:40:26;;;;;;;13.57;12.98;;;;;;;;;;5079925;28;20058;-69
2023/12/03 09:42:52;;;;;;;13.70;13.00;;;;;;;;;;5074529;28;20012;-68
2023/12/03 09:45:19;;;;;;;14.18;13.48;;;;;;;;;;5074323;28;20052;-68
2023/12/03 09:47:53;;;;;;;13.95;13.27;;;;;;;;;;5076562;28;20009;-68
2023/12/03 09:50:18;;;;;;;13.63;12.93;;;;;;;;;;5072614;28;20048;-68
2023/12/03 09:52:46;;;;;;;14.07;13.38;;;;;;;;;;5078865;28;20036;-69
2023/12/03 09:55:12;;;;;;;13.32;12.65;;;;;;;;;;5074193;28;20100;-69
2023/12/03 09:57:38;;;;;;;13.20;12.60;;;;;;;;;;5070587;28;20170;-69
2023/12/03 10:00:05;;;;;;;13.98;13.27;;;;;;;;;;5074752;28;20028;-69
2023/12/03 10:02:33;;;;;;;13.00;12.40;;;;;;;;;;5074954;28;20046;-69
2023/12/03 10:04:58;;;;;;;13.57;12.88;;;;;;;;;;5074278;28;20028;-68
2023/12/03 10:07:26;;;;;;;14.48;13.68;;;;;;;;;;5071920;28;20031;-68
2023/12/03 10:09:52;;;;;;;12.98;12.38;;;;;;;;;;5078276;28;20020;-69
2023/12/03 10:12:19;;;;;;;14.23;13.45;;;;;;;;;;5070289;28;20025;-68
2023/12/03 10:14:47;;;;;;;14.27;13.57;;;;;;;;;;5074824;28;20032;-69
2023/12/03 10:17:19;;;;;;;13.75;13.05;;;;;;;;;;5075855;28;20082;-69
2023/12/03 10:19:47;;;;;;;13.68;12.98;;;;;;;;;;5073751;28;20031;-69
2023/12/03 10:22:12;;;;;;;13.38;12.70;;;;;;;;;;5073280;28;20395;-69
2023/12/03 10:24:47;;;;;;;13.60;12.90;;;;;;;;;;5069514;28;20021;-69
2023/12/03 10:27:13;;;;;;;13.00;12.40;;;;;;;;;;5078704;28;20086;-68
2023/12/03 10:29:38;;;;;;;13.25;12.60;;;;;;;;;;5072622;28;20017;-68
2023/12/03 10:32:04;;;;;;;12.75;12.15;;;;;;;;;;5079820;28;20047;-69
2023/12/03 10:34:29;;;;;;;12.90;12.30;;;;;;;;;;5072369;28;20083;-68
2023/12/03 10:36:55;;;;;;;13.23;12.52;;;;;;;;;;5064766;28;20075;-68
2023/12/03 10:39:20;;;;;;;13.10;12.50;;;;;;;;;;5074773;28;20090;-69
2023/12/03 10:41:46;;;;;;;13.13;12.52;;;;;;;;;;5075412;28;20058;-69
2023/12/03 10:44:24;;;;;;;12.23;11.65;;;;;;;;;;5081102;28;20103;-69
2023/12/03 10:46:50;;;;;;;13.30;12.60;;;;;;;;;;5061209;28;20013;-69
2023/12/03 10:49:15;;;;;;;12.82;12.23;;;;;;;;;;5063334;28;20052;-68
2023/12/03 10:51:42;;;;;;;13.05;12.43;;;;;;;;;;5074828;28;20020;-69
2023/12/03 10:54:08;;;;;;;13.23;12.52;;;;;;;;;;5068337;28;20435;-69
2023/12/03 10:56:34;;;;;;;13.65;12.95;;;;;;;;;;5072687;28;20143;-69
2023/12/03 10:59:01;;;;;;;12.95;12.35;;;;;;;;;;5079566;28;20456;-68
2023/12/03 11:01:28;;;;;;;13.20;12.52;;;;;;;;;;5075671;28;20017;-68
2023/12/03 11:04:08;;;;;;;14.27;13.48;;;;;;;;;;5077662;28;20023;-69
2023/12/03 11:06:34;;;;;;;13.98;13.27;;;;;;;;;;5075507;28;20023;-69
2023/12/03 11:09:00;;;;;;;13.35;12.65;;;;;;;;;;5083067;28;20066;-69
2023/12/03 11:11:25;;;;;;;13.52;12.82;;;;;;;;;;5076587;28;20669;-69
2023/12/03 11:13:52;;;;;;;13.70;13.00;;;;;;;;;;5082735;28;20519;-68
2023/12/03 11:16:18;;;;;;;13.15;12.48;;;;;;;;;;5089814;28;20036;-70
2023/12/03 11:18:53;;;;;;;14.25;13.45;;;;;;;;;;5079643;28;20040;-70
2023/12/03 11:21:23;;;;;;;13.23;12.55;;;;;;;;;;5079683;28;20016;-70
2023/12/03 11:24:09;;;;;;;13.30;12.60;;;;;;;;;;5085496;28;20483;-69
2023/12/03 11:26:37;;;;;;;13.10;12.40;;;;;;;;;;5082841;28;20029;-70
2023/12/03 11:29:02;;;;;;;13.60;12.90;;;;;;;;;;5087043;28;20031;-69
2023/12/03 11:31:28;;;;;;;12.88;12.27;;;;;;;;;;5080693;28;20092;-68
2023/12/03 11:33:58;;;;;;;13.77;13.07;;;;;;;;;;5084698;28;20475;-69
2023/12/03 11:36:36;;;;;;;14.13;13.32;;;;;;;;;;5079601;28;20026;-69
2023/12/03 11:39:02;;;;;;;13.50;12.80;;;;;;;;;;5075811;28;20351;-69
2023/12/03 11:41:31;;;;;;;13.63;12.93;;;;;;;;;;5071172;28;20487;-69
2023/12/03 11:44:15;;;;;;;13.55;12.85;;;;;;;;;;5076152;28;20687;-69
2023/12/03 11:46:50;;;;;;;12.68;12.07;;;;;;;;;;5069484;28;20024;-69
2023/12/03 11:49:18;;;;;;;13.45;12.75;;;;;;;;;;5072983;28;20048;-69
2023/12/03 11:51:44;;;;;;;13.10;12.40;;;;;;;;;;5074681;28;20024;-69
2023/12/03 11:54:12;;;;;;;13.35;12.65;;;;;;;;;;5084732;28;20051;-69
2023/12/03 11:56:37;;;;;;;12.90;12.30;;;;;;;;;;5071003;28;20029;-69
2023/12/03 11:59:04;;;;;;;13.50;12.80;;;;;;;;;;5061187;28;20032;-68
2023/12/03 12:01:30;;;;;;;12.60;12.00;;;;;;;;;;5082601;28;20048;-69
2023/12/03 12:03:55;;;;;;;13.30;12.60;;;;;;;;;;5069309;28;20055;-69
2023/12/03 12:06:27;;;;;;;13.40;12.70;;;;;;;;;;5071043;28;20017;-69
2023/12/03 12:08:52;;;;;;;12.98;12.38;;;;;;;;;;5068966;28;20013;-68
2023/12/03 12:11:18;;;;;;;12.95;12.32;;;;;;;;;;5073487;28;20112;-69
2023/12/03 12:13:45;;;;;;;13.60;12.90;;;;;;;;;;5087395;28;20102;-69
2023/12/03 12:16:12;;;;;;;13.30;12.60;;;;;;;;;;5073566;28;20476;-69
2023/12/03 12:18:37;;;;;;;13.40;12.70;;;;;;;;;;5080501;28;20056;-69
2023/12/03 12:21:07;;;;;;;13.32;12.63;;;;;;;;;;5067217;28;20039;-69
2023/12/03 12:23:32;;;;;;;13.20;12.50;;;;;;;;;;5081600;28;20074;-69
2023/12/03 12:25:57;;;;;;;13.05;12.45;;;;;;;;;;5078792;28;20464;-69
2023/12/03 12:28:23;;;;;;;13.60;12.90;;;;;;;;;;5067771;28;20017;-69
2023/12/03 12:30:49;;;;;;;12.93;12.32;;;;;;;;;;5065051;28;20400;-69
2023/12/03 12:33:15;;;;;;;13.75;13.05;;;;;;;;;;5077742;28;20028;-69
2023/12/03 12:35:42;;;;;;;13.05;12.38;;;;;;;;;;5079420;28;20017;-69
2023/12/03 12:38:07;;;;;;;12.38;11.77;;;;;;;;;;5072837;28;20039;-68
2023/12/03 12:40:38;;;;;;;13.85;13.15;;;;;;;;;;5071435;28;20044;-69
2023/12/03 12:43:07;;;;;;;13.27;12.60;;;;;;;;;;5073634;28;20036;-70
2023/12/03 12:45:33;;;;;;;13.95;13.25;;;;;;;;;;5067399;28;20021;-69
2023/12/03 12:47:59;;;;;;;12.75;12.15;;;;;;;;;;5058240;28;20025;-68
2023/12/03 12:50:38;;;;;;;13.25;12.55;;;;;;;;;;5067686;28;20028;-68
2023/12/03 12:53:05;;;;;;;13.00;12.38;;;;;;;;;;5065450;28;20032;-70
2023/12/03 12:55:31;;;;;;;13.25;12.55;;;;;;;;;;5065535;28;20035;-70
2023/12/03 12:57:57;;;;;;;13.30;12.60;;;;;;;;;;5069099;28;20672;-69
2023/12/03 13:00:25;;;;;;;13.15;12.45;;;;;;;;;;5070427;28;20031;-69
2023/12/03 13:02:54;;;;;;;13.32;12.63;;;;;;;;;;5069962;28;20027;-70
2023/12/03 13:05:19;;;;;;;13.68;12.98;;;;;;;;;;5071246;28;20089;-71
2023/12/03 13:07:44;;;;;;;13.00;12.35;;;;;;;;;;5072562;28;20544;-69
2023/12/03 13:10:10;;;;;;;14.20;13.40;;;;;;;;;;5073277;28;20016;-69
2023/12/03 13:12:35;;;;;;;12.52;11.93;;;;;;;;;;5070059;28;20586;-70
2023/12/03 13:15:03;;;;;;;13.93;13.20;;;;;;;;;;5060865;28;20384;-70
2023/12/03 13:17:28;;;;;;;13.50;12.80;;;;;;;;;;5059934;28;20105;-72
2023/12/03 13:19:53;;;;;;;13.70;13.00;;;;;;;;;;5060993;28;20036;-73
2023/12/03 13:22:19;;;;;;;13.30;12.60;;;;;;;;;;5063140;28;20060;-72
2023/12/03 13:24:46;;;;;;;13.18;12.48;;;;;;;;;;5064823;28;20077;-72
2023/12/03 13:27:12;;;;;;;14.23;13.43;;;;;;;;;;5062102;28;20402;-69
2023/12/03 13:29:37;;;;;;;13.05;12.35;;;;;;;;;;5070607;28;20125;-70
2023/12/03 13:32:02;;;;;;;13.27;12.57;;;;;;;;;;5068965;28;20020;-70
2023/12/03 13:34:28;;;;;;;12.60;12.00;;;;;;;;;;5068951;28;20020;-68
2023/12/03 13:36:53;;;;;;;13.02;12.43;;;;;;;;;;5060379;28;20027;-70
2023/12/03 13:39:18;;;;;;;13.13;12.48;;;;;;;;;;5069064;28;20070;-69
2023/12/03 13:41:44;;;;;;;14.43;13.63;;;;;;;;;;5068099;28;20044;-69
2023/12/03 13:44:09;;;;;;;13.13;12.43;;;;;;;;;;5066641;28;20048;-70
2023/12/03 13:46:35;;;;;;;12.65;12.05;;;;;;;;;;5067707;28;20076;-67
2023/12/03 13:49:02;;;;;;;13.32;12.63;;;;;;;;;;5061119;28;20024;-70
2023/12/03 13:51:29;;;;;;;13.45;12.75;;;;;;;;;;5063596;28;20541;-68
2023/12/03 13:53:55;;;;;;;13.82;13.10;;;;;;;;;;5059801;28;20024;-67
2023/12/03 13:56:20;;;;;;;13.60;12.90;;;;;;;;;;5069140;28;20047;-69
2023/12/03 13:58:45;;;;;;;13.55;12.85;;;;;;;;;;5063742;28;20029;-68
2023/12/03 14:01:12;;;;;;;14.00;13.25;;;;;;;;;;5064477;28;20117;-68
2023/12/03 14:03:37;;;;;;;13.70;13.00;;;;;;;;;;5063430;28;20029;-68
2023/12/03 14:06:05;;;;;;;13.70;13.00;;;;;;;;;;5066807;28;20075;-68
2023/12/03 14:08:33;;;;;;;14.02;13.23;;;;;;;;;;5066786;28;20038;-68